sensor_id;sensor_type;location;lat;lon;timestamp;P1;durP1;ratioP1;P2;durP2;ratioP2
35290;SDS011;21411;50.024;19.220;2023-05-10T00:00:40;13.40;;;10.20;;
35290;SDS011;21411;50.024;19.220;2023-05-10T00:03:11;14.20;;;10.20;;
35290;SDS011;21411;50.024;19.220;2023-05-10T00:05:37;13.00;;;9.80;;
35290;SDS011;21411;50.024;19.220;2023-05-10T00:08:04;15.10;;;10.80;;
35290;SDS011;21411;50.024;19.220;2023-05-10T00:10:30;14.90;;;11.20;;
35290;SDS011;21411;50.024;19.220;2023-05-10T00:12:57;13.90;;;9.90;;
35290;SDS011;21411;50.024;19.220;2023-05-10T00:15:24;13.30;;;10.30;;
35290;SDS011;21411;50.024;19.220;2023-05-10T00:17:50;14.60;;;10.60;;
35290;SDS011;21411;50.024;19.220;2023-05-10T00:20:17;12.80;;;9.90;;
35290;SDS011;21411;50.024;19.220;2023-05-10T00:22:43;14.60;;;10.60;;
35290;SDS011;21411;50.024;19.220;2023-05-10T00:25:10;14.50;;;10.10;;
35290;SDS011;21411;50.024;19.220;2023-05-10T00:27:37;14.00;;;10.10;;
35290;SDS011;21411;50.024;19.220;2023-05-10T00:30:03;13.80;;;10.70;;
35290;SDS011;21411;50.024;19.220;2023-05-10T00:32:30;14.60;;;10.70;;
35290;SDS011;21411;50.024;19.220;2023-05-10T00:34:57;12.30;;;11.00;;
35290;SDS011;21411;50.024;19.220;2023-05-10T00:37:23;14.30;;;10.70;;
35290;SDS011;21411;50.024;19.220;2023-05-10T00:39:50;15.00;;;12.00;;
35290;SDS011;21411;50.024;19.220;2023-05-10T00:42:17;12.90;;;10.50;;
35290;SDS011;21411;50.024;19.220;2023-05-10T00:44:43;13.70;;;11.10;;
35290;SDS011;21411;50.024;19.220;2023-05-10T00:47:09;14.30;;;10.30;;
35290;SDS011;21411;50.024;19.220;2023-05-10T00:49:37;15.40;;;11.20;;
35290;SDS011;21411;50.024;19.220;2023-05-10T00:52:04;13.80;;;11.00;;
35290;SDS011;21411;50.024;19.220;2023-05-10T00:54:30;16.50;;;12.40;;
35290;SDS011;21411;50.024;19.220;2023-05-10T00:56:57;15.40;;;11.40;;
35290;SDS011;21411;50.024;19.220;2023-05-10T00:59:24;13.90;;;11.10;;
35290;SDS011;21411;50.024;19.220;2023-05-10T01:01:51;15.00;;;11.90;;
35290;SDS011;21411;50.024;19.220;2023-05-10T01:04:18;15.10;;;12.00;;
35290;SDS011;21411;50.024;19.220;2023-05-10T01:06:46;16.80;;;11.90;;
35290;SDS011;21411;50.024;19.220;2023-05-10T01:09:12;17.80;;;12.40;;
35290;SDS011;21411;50.024;19.220;2023-05-10T01:11:39;16.50;;;13.10;;
35290;SDS011;21411;50.024;19.220;2023-05-10T01:14:06;16.60;;;11.70;;
35290;SDS011;21411;50.024;19.220;2023-05-10T01:16:35;14.30;;;11.70;;
35290;SDS011;21411;50.024;19.220;2023-05-10T01:19:05;15.70;;;11.80;;
35290;SDS011;21411;50.024;19.220;2023-05-10T01:21:38;15.80;;;11.60;;
35290;SDS011;21411;50.024;19.220;2023-05-10T01:29:36;14.30;;;11.90;;
35290;SDS011;21411;50.024;19.220;2023-05-10T01:32:29;12.20;;;10.90;;
35290;SDS011;21411;50.024;19.220;2023-05-10T01:40:42;13.90;;;11.40;;
35290;SDS011;21411;50.024;19.220;2023-05-10T01:43:17;15.80;;;11.60;;
35290;SDS011;21411;50.024;19.220;2023-05-10T01:45:54;14.50;;;11.10;;
35290;SDS011;21411;50.024;19.220;2023-05-10T01:48:27;14.60;;;11.40;;
35290;SDS011;21411;50.024;19.220;2023-05-10T01:50:54;17.00;;;11.50;;
35290;SDS011;21411;50.024;19.220;2023-05-10T01:53:23;13.30;;;10.50;;
35290;SDS011;21411;50.024;19.220;2023-05-10T01:55:51;17.30;;;11.80;;
35290;SDS011;21411;50.024;19.220;2023-05-10T01:58:23;16.50;;;11.00;;
35290;SDS011;21411;50.024;19.220;2023-05-10T02:00:53;15.90;;;11.90;;
35290;SDS011;21411;50.024;19.220;2023-05-10T02:03:21;15.80;;;12.00;;
35290;SDS011;21411;50.024;19.220;2023-05-10T02:05:49;13.90;;;11.30;;
35290;SDS011;21411;50.024;19.220;2023-05-10T02:08:19;14.00;;;12.30;;
35290;SDS011;21411;50.024;19.220;2023-05-10T02:10:48;14.90;;;12.20;;
35290;SDS011;21411;50.024;19.220;2023-05-10T02:13:16;15.90;;;12.00;;
35290;SDS011;21411;50.024;19.220;2023-05-10T02:15:46;14.80;;;12.00;;
35290;SDS011;21411;50.024;19.220;2023-05-10T02:18:14;16.20;;;11.90;;
35290;SDS011;21411;50.024;19.220;2023-05-10T02:20:43;14.30;;;11.30;;
35290;SDS011;21411;50.024;19.220;2023-05-10T02:23:12;17.20;;;12.00;;
35290;SDS011;21411;50.024;19.220;2023-05-10T02:25:40;16.50;;;12.00;;
35290;SDS011;21411;50.024;19.220;2023-05-10T02:28:09;13.10;;;10.90;;
35290;SDS011;21411;50.024;19.220;2023-05-10T02:30:38;17.30;;;12.50;;
35290;SDS011;21411;50.024;19.220;2023-05-10T02:33:05;14.10;;;11.20;;
35290;SDS011;21411;50.024;19.220;2023-05-10T02:35:32;17.70;;;11.40;;
35290;SDS011;21411;50.024;19.220;2023-05-10T02:38:01;13.10;;;11.20;;
35290;SDS011;21411;50.024;19.220;2023-05-10T02:40:28;17.00;;;11.80;;
35290;SDS011;21411;50.024;19.220;2023-05-10T02:42:56;14.20;;;11.20;;
35290;SDS011;21411;50.024;19.220;2023-05-10T02:45:24;12.40;;;10.70;;
35290;SDS011;21411;50.024;19.220;2023-05-10T02:47:54;16.40;;;11.00;;
35290;SDS011;21411;50.024;19.220;2023-05-10T02:50:21;14.70;;;11.30;;
35290;SDS011;21411;50.024;19.220;2023-05-10T02:52:51;17.40;;;11.80;;
35290;SDS011;21411;50.024;19.220;2023-05-10T02:55:25;16.10;;;11.40;;
35290;SDS011;21411;50.024;19.220;2023-05-10T02:57:59;15.30;;;11.30;;
35290;SDS011;21411;50.024;19.220;2023-05-10T03:00:27;15.70;;;11.80;;
35290;SDS011;21411;50.024;19.220;2023-05-10T03:02:54;15.00;;;10.90;;
35290;SDS011;21411;50.024;19.220;2023-05-10T03:05:21;16.50;;;11.40;;
35290;SDS011;21411;50.024;19.220;2023-05-10T03:07:48;14.40;;;11.40;;
35290;SDS011;21411;50.024;19.220;2023-05-10T03:10:14;16.10;;;10.50;;
35290;SDS011;21411;50.024;19.220;2023-05-10T03:13:01;14.60;;;11.10;;
35290;SDS011;21411;50.024;19.220;2023-05-10T03:18:28;15.40;;;11.40;;
35290;SDS011;21411;50.024;19.220;2023-05-10T03:21:01;18.10;;;10.20;;
35290;SDS011;21411;50.024;19.220;2023-05-10T03:23:34;15.60;;;11.20;;
35290;SDS011;21411;50.024;19.220;2023-05-10T03:26:05;15.20;;;10.80;;
35290;SDS011;21411;50.024;19.220;2023-05-10T03:28:33;15.90;;;10.20;;
35290;SDS011;21411;50.024;19.220;2023-05-10T03:31:02;14.00;;;10.20;;
35290;SDS011;21411;50.024;19.220;2023-05-10T03:33:31;13.40;;;10.40;;
35290;SDS011;21411;50.024;19.220;2023-05-10T03:35:58;14.40;;;10.10;;
35290;SDS011;21411;50.024;19.220;2023-05-10T03:38:25;12.20;;;10.10;;
35290;SDS011;21411;50.024;19.220;2023-05-10T03:40:51;14.80;;;10.60;;
35290;SDS011;21411;50.024;19.220;2023-05-10T03:43:17;13.40;;;10.20;;
35290;SDS011;21411;50.024;19.220;2023-05-10T03:45:44;11.30;;;9.50;;
35290;SDS011;21411;50.024;19.220;2023-05-10T03:48:10;12.20;;;10.00;;
35290;SDS011;21411;50.024;19.220;2023-05-10T03:50:37;12.00;;;8.90;;
35290;SDS011;21411;50.024;19.220;2023-05-10T03:53:03;11.70;;;9.30;;
35290;SDS011;21411;50.024;19.220;2023-05-10T03:55:30;9.90;;;8.90;;
35290;SDS011;21411;50.024;19.220;2023-05-10T04:00:26;12.40;;;8.70;;
35290;SDS011;21411;50.024;19.220;2023-05-10T04:02:53;9.80;;;8.10;;
35290;SDS011;21411;50.024;19.220;2023-05-10T04:05:19;13.40;;;8.70;;
35290;SDS011;21411;50.024;19.220;2023-05-10T04:07:46;9.20;;;8.00;;
35290;SDS011;21411;50.024;19.220;2023-05-10T04:10:15;11.10;;;8.80;;
35290;SDS011;21411;50.024;19.220;2023-05-10T04:12:42;11.90;;;9.30;;
35290;SDS011;21411;50.024;19.220;2023-05-10T04:15:08;9.80;;;8.80;;
35290;SDS011;21411;50.024;19.220;2023-05-10T04:17:35;9.50;;;8.40;;
35290;SDS011;21411;50.024;19.220;2023-05-10T04:20:02;9.70;;;8.50;;
35290;SDS011;21411;50.024;19.220;2023-05-10T04:22:29;9.90;;;8.30;;
35290;SDS011;21411;50.024;19.220;2023-05-10T04:24:56;9.50;;;8.10;;
35290;SDS011;21411;50.024;19.220;2023-05-10T04:27:23;10.00;;;8.00;;
35290;SDS011;21411;50.024;19.220;2023-05-10T04:29:49;11.30;;;8.70;;
35290;SDS011;21411;50.024;19.220;2023-05-10T04:32:16;9.10;;;8.30;;
35290;SDS011;21411;50.024;19.220;2023-05-10T04:34:43;11.00;;;8.80;;
35290;SDS011;21411;50.024;19.220;2023-05-10T04:37:10;11.60;;;8.90;;
35290;SDS011;21411;50.024;19.220;2023-05-10T04:39:36;8.90;;;7.20;;
35290;SDS011;21411;50.024;19.220;2023-05-10T04:42:03;9.10;;;7.70;;
35290;SDS011;21411;50.024;19.220;2023-05-10T04:44:32;8.70;;;7.80;;
35290;SDS011;21411;50.024;19.220;2023-05-10T04:46:58;9.90;;;7.90;;
35290;SDS011;21411;50.024;19.220;2023-05-10T04:49:25;9.00;;;7.60;;
35290;SDS011;21411;50.024;19.220;2023-05-10T04:51:52;9.40;;;8.30;;
35290;SDS011;21411;50.024;19.220;2023-05-10T04:54:18;9.20;;;8.30;;
35290;SDS011;21411;50.024;19.220;2023-05-10T04:56:45;8.90;;;8.10;;
35290;SDS011;21411;50.024;19.220;2023-05-10T04:59:11;8.40;;;7.70;;
35290;SDS011;21411;50.024;19.220;2023-05-10T05:01:37;8.30;;;7.50;;
35290;SDS011;21411;50.024;19.220;2023-05-10T05:04:04;9.20;;;8.20;;
35290;SDS011;21411;50.024;19.220;2023-05-10T05:06:31;10.30;;;7.40;;
35290;SDS011;21411;50.024;19.220;2023-05-10T05:08:57;10.40;;;7.80;;
35290;SDS011;21411;50.024;19.220;2023-05-10T05:11:24;8.80;;;7.80;;
35290;SDS011;21411;50.024;19.220;2023-05-10T05:13:51;10.30;;;7.70;;
35290;SDS011;21411;50.024;19.220;2023-05-10T05:16:18;8.80;;;7.30;;
35290;SDS011;21411;50.024;19.220;2023-05-10T05:18:44;9.90;;;6.60;;
35290;SDS011;21411;50.024;19.220;2023-05-10T05:21:17;9.50;;;7.40;;
35290;SDS011;21411;50.024;19.220;2023-05-10T05:23:44;7.60;;;6.80;;
35290;SDS011;21411;50.024;19.220;2023-05-10T05:26:11;9.60;;;7.10;;
35290;SDS011;21411;50.024;19.220;2023-05-10T05:28:37;10.40;;;7.10;;
35290;SDS011;21411;50.024;19.220;2023-05-10T05:31:04;9.70;;;7.20;;
35290;SDS011;21411;50.024;19.220;2023-05-10T05:33:31;8.20;;;7.10;;
35290;SDS011;21411;50.024;19.220;2023-05-10T05:36:00;7.20;;;6.50;;
35290;SDS011;21411;50.024;19.220;2023-05-10T05:38:27;11.00;;;6.90;;
35290;SDS011;21411;50.024;19.220;2023-05-10T05:40:54;10.70;;;6.40;;
35290;SDS011;21411;50.024;19.220;2023-05-10T05:43:21;9.40;;;7.40;;
35290;SDS011;21411;50.024;19.220;2023-05-10T05:45:47;9.90;;;7.00;;
35290;SDS011;21411;50.024;19.220;2023-05-10T05:48:14;7.80;;;6.80;;
35290;SDS011;21411;50.024;19.220;2023-05-10T05:50:40;7.60;;;6.90;;
35290;SDS011;21411;50.024;19.220;2023-05-10T05:53:07;9.10;;;7.40;;
35290;SDS011;21411;50.024;19.220;2023-05-10T05:55:34;8.10;;;6.70;;
35290;SDS011;21411;50.024;19.220;2023-05-10T05:58:00;7.90;;;7.20;;
35290;SDS011;21411;50.024;19.220;2023-05-10T06:00:27;8.00;;;6.20;;
35290;SDS011;21411;50.024;19.220;2023-05-10T06:02:53;10.70;;;7.10;;
35290;SDS011;21411;50.024;19.220;2023-05-10T06:05:20;7.30;;;6.50;;
35290;SDS011;21411;50.024;19.220;2023-05-10T06:07:47;6.90;;;6.20;;
35290;SDS011;21411;50.024;19.220;2023-05-10T06:10:14;7.20;;;6.50;;
35290;SDS011;21411;50.024;19.220;2023-05-10T06:12:40;7.60;;;6.90;;
35290;SDS011;21411;50.024;19.220;2023-05-10T06:15:07;6.90;;;6.30;;
35290;SDS011;21411;50.024;19.220;2023-05-10T06:17:35;7.40;;;6.60;;
35290;SDS011;21411;50.024;19.220;2023-05-10T06:20:01;7.00;;;6.30;;
35290;SDS011;21411;50.024;19.220;2023-05-10T06:22:28;7.90;;;6.60;;
35290;SDS011;21411;50.024;19.220;2023-05-10T06:24:54;10.50;;;6.90;;
35290;SDS011;21411;50.024;19.220;2023-05-10T06:27:21;9.10;;;6.30;;
35290;SDS011;21411;50.024;19.220;2023-05-10T06:29:48;7.10;;;6.30;;
35290;SDS011;21411;50.024;19.220;2023-05-10T06:32:14;7.90;;;6.90;;
35290;SDS011;21411;50.024;19.220;2023-05-10T06:34:41;6.10;;;5.50;;
35290;SDS011;21411;50.024;19.220;2023-05-10T06:37:09;7.20;;;6.50;;
35290;SDS011;21411;50.024;19.220;2023-05-10T06:39:35;8.60;;;6.60;;
35290;SDS011;21411;50.024;19.220;2023-05-10T06:42:02;9.30;;;6.30;;
35290;SDS011;21411;50.024;19.220;2023-05-10T06:44:30;6.90;;;6.20;;
35290;SDS011;21411;50.024;19.220;2023-05-10T06:46:57;6.60;;;5.90;;
35290;SDS011;21411;50.024;19.220;2023-05-10T06:49:23;8.30;;;6.00;;
35290;SDS011;21411;50.024;19.220;2023-05-10T06:51:50;8.10;;;6.00;;
35290;SDS011;21411;50.024;19.220;2023-05-10T06:54:16;5.80;;;5.00;;
35290;SDS011;21411;50.024;19.220;2023-05-10T06:56:43;6.70;;;6.00;;
35290;SDS011;21411;50.024;19.220;2023-05-10T06:59:10;6.90;;;5.50;;
35290;SDS011;21411;50.024;19.220;2023-05-10T07:01:36;7.30;;;6.50;;
35290;SDS011;21411;50.024;19.220;2023-05-10T07:04:03;6.30;;;5.50;;
35290;SDS011;21411;50.024;19.220;2023-05-10T07:06:30;7.50;;;5.90;;
35290;SDS011;21411;50.024;19.220;2023-05-10T07:08:56;7.80;;;6.20;;
35290;SDS011;21411;50.024;19.220;2023-05-10T07:11:23;7.70;;;5.30;;
35290;SDS011;21411;50.024;19.220;2023-05-10T07:13:49;7.30;;;5.50;;
35290;SDS011;21411;50.024;19.220;2023-05-10T07:16:16;6.70;;;5.20;;
35290;SDS011;21411;50.024;19.220;2023-05-10T07:18:43;6.10;;;5.50;;
35290;SDS011;21411;50.024;19.220;2023-05-10T07:21:09;6.20;;;5.60;;
35290;SDS011;21411;50.024;19.220;2023-05-10T07:23:35;8.60;;;6.50;;
35290;SDS011;21411;50.024;19.220;2023-05-10T07:26:02;7.00;;;5.50;;
35290;SDS011;21411;50.024;19.220;2023-05-10T07:28:29;7.30;;;6.00;;
35290;SDS011;21411;50.024;19.220;2023-05-10T07:30:55;6.70;;;5.90;;
35290;SDS011;21411;50.024;19.220;2023-05-10T07:33:22;7.10;;;5.70;;
35290;SDS011;21411;50.024;19.220;2023-05-10T07:35:49;6.40;;;5.30;;
35290;SDS011;21411;50.024;19.220;2023-05-10T07:38:16;5.90;;;5.30;;
35290;SDS011;21411;50.024;19.220;2023-05-10T07:40:43;9.50;;;7.00;;
35290;SDS011;21411;50.024;19.220;2023-05-10T07:43:10;9.80;;;6.40;;
35290;SDS011;21411;50.024;19.220;2023-05-10T07:45:36;5.70;;;5.20;;
35290;SDS011;21411;50.024;19.220;2023-05-10T07:48:03;6.20;;;4.90;;
35290;SDS011;21411;50.024;19.220;2023-05-10T07:50:29;8.10;;;5.50;;
35290;SDS011;21411;50.024;19.220;2023-05-10T07:52:56;6.40;;;4.60;;
35290;SDS011;21411;50.024;19.220;2023-05-10T07:55:22;7.00;;;5.00;;
35290;SDS011;21411;50.024;19.220;2023-05-10T07:57:49;9.00;;;4.80;;
35290;SDS011;21411;50.024;19.220;2023-05-10T08:00:19;5.80;;;4.90;;
35290;SDS011;21411;50.024;19.220;2023-05-10T08:02:46;6.00;;;5.30;;
35290;SDS011;21411;50.024;19.220;2023-05-10T08:05:13;4.80;;;4.20;;
35290;SDS011;21411;50.024;19.220;2023-05-10T08:07:40;5.70;;;4.70;;
35290;SDS011;21411;50.024;19.220;2023-05-10T08:10:07;5.00;;;4.10;;
35290;SDS011;21411;50.024;19.220;2023-05-10T08:12:34;4.80;;;4.00;;
35290;SDS011;21411;50.024;19.220;2023-05-10T08:15:01;4.30;;;3.90;;
35290;SDS011;21411;50.024;19.220;2023-05-10T08:17:27;5.10;;;4.00;;
35290;SDS011;21411;50.024;19.220;2023-05-10T08:19:54;8.10;;;3.90;;
35290;SDS011;21411;50.024;19.220;2023-05-10T08:22:20;5.90;;;4.00;;
35290;SDS011;21411;50.024;19.220;2023-05-10T08:24:47;4.70;;;3.60;;
35290;SDS011;21411;50.024;19.220;2023-05-10T08:27:13;4.40;;;3.80;;
35290;SDS011;21411;50.024;19.220;2023-05-10T08:29:40;5.50;;;4.20;;
35290;SDS011;21411;50.024;19.220;2023-05-10T08:32:07;4.40;;;3.60;;
35290;SDS011;21411;50.024;19.220;2023-05-10T08:34:33;5.40;;;3.90;;
35290;SDS011;21411;50.024;19.220;2023-05-10T08:37:00;5.60;;;3.30;;
35290;SDS011;21411;50.024;19.220;2023-05-10T08:39:26;4.10;;;3.20;;
35290;SDS011;21411;50.024;19.220;2023-05-10T08:41:53;5.30;;;3.20;;
35290;SDS011;21411;50.024;19.220;2023-05-10T08:44:25;3.70;;;2.90;;
35290;SDS011;21411;50.024;19.220;2023-05-10T08:46:51;3.90;;;2.90;;
35290;SDS011;21411;50.024;19.220;2023-05-10T08:49:20;4.60;;;3.00;;
35290;SDS011;21411;50.024;19.220;2023-05-10T08:51:50;5.60;;;3.10;;
35290;SDS011;21411;50.024;19.220;2023-05-10T08:54:21;4.70;;;3.50;;
35290;SDS011;21411;50.024;19.220;2023-05-10T08:56:47;3.90;;;2.90;;
35290;SDS011;21411;50.024;19.220;2023-05-10T08:59:14;2.60;;;2.40;;
35290;SDS011;21411;50.024;19.220;2023-05-10T09:01:42;4.70;;;2.60;;
35290;SDS011;21411;50.024;19.220;2023-05-10T09:04:11;5.60;;;2.20;;
35290;SDS011;21411;50.024;19.220;2023-05-10T09:06:38;3.40;;;2.30;;
35290;SDS011;21411;50.024;19.220;2023-05-10T09:09:04;3.60;;;2.10;;
35290;SDS011;21411;50.024;19.220;2023-05-10T09:11:31;2.60;;;2.40;;
35290;SDS011;21411;50.024;19.220;2023-05-10T09:13:58;3.60;;;2.30;;
35290;SDS011;21411;50.024;19.220;2023-05-10T09:16:24;3.80;;;2.60;;
35290;SDS011;21411;50.024;19.220;2023-05-10T09:18:51;6.10;;;2.80;;
35290;SDS011;21411;50.024;19.220;2023-05-10T09:21:19;4.20;;;2.20;;
35290;SDS011;21411;50.024;19.220;2023-05-10T09:23:46;3.30;;;2.20;;
35290;SDS011;21411;50.024;19.220;2023-05-10T09:26:16;2.50;;;2.20;;
35290;SDS011;21411;50.024;19.220;2023-05-10T09:28:52;3.60;;;2.60;;
35290;SDS011;21411;50.024;19.220;2023-05-10T09:31:20;3.00;;;2.40;;
35290;SDS011;21411;50.024;19.220;2023-05-10T09:33:47;2.90;;;2.40;;
35290;SDS011;21411;50.024;19.220;2023-05-10T09:36:15;2.40;;;2.20;;
35290;SDS011;21411;50.024;19.220;2023-05-10T09:38:45;4.00;;;2.50;;
35290;SDS011;21411;50.024;19.220;2023-05-10T09:41:17;3.90;;;2.40;;
35290;SDS011;21411;50.024;19.220;2023-05-10T09:43:46;9.30;;;3.20;;
35290;SDS011;21411;50.024;19.220;2023-05-10T09:46:12;6.10;;;3.70;;
35290;SDS011;21411;50.024;19.220;2023-05-10T09:48:44;3.70;;;2.50;;
35290;SDS011;21411;50.024;19.220;2023-05-10T09:51:23;3.10;;;2.40;;
35290;SDS011;21411;50.024;19.220;2023-05-10T09:54:08;3.40;;;2.30;;
35290;SDS011;21411;50.024;19.220;2023-05-10T09:56:42;5.50;;;3.10;;
35290;SDS011;21411;50.024;19.220;2023-05-10T09:59:12;4.30;;;2.70;;
35290;SDS011;21411;50.024;19.220;2023-05-10T10:04:06;12.00;;;4.50;;
35290;SDS011;21411;50.024;19.220;2023-05-10T10:06:39;4.10;;;3.50;;
35290;SDS011;21411;50.024;19.220;2023-05-10T10:09:06;4.20;;;2.60;;
35290;SDS011;21411;50.024;19.220;2023-05-10T10:11:34;3.40;;;2.70;;
35290;SDS011;21411;50.024;19.220;2023-05-10T10:14:04;6.00;;;3.10;;
35290;SDS011;21411;50.024;19.220;2023-05-10T10:16:31;3.90;;;2.90;;
35290;SDS011;21411;50.024;19.220;2023-05-10T10:18:58;7.60;;;2.90;;
35290;SDS011;21411;50.024;19.220;2023-05-10T10:21:25;10.80;;;3.30;;
35290;SDS011;21411;50.024;19.220;2023-05-10T10:23:51;6.30;;;3.10;;
35290;SDS011;21411;50.024;19.220;2023-05-10T10:26:19;5.70;;;3.10;;
35290;SDS011;21411;50.024;19.220;2023-05-10T10:31:34;3.10;;;2.80;;
35290;SDS011;21411;50.024;19.220;2023-05-10T10:34:06;3.50;;;2.80;;
35290;SDS011;21411;50.024;19.220;2023-05-10T10:36:42;2.50;;;2.20;;
35290;SDS011;21411;50.024;19.220;2023-05-10T10:39:11;2.80;;;2.60;;
35290;SDS011;21411;50.024;19.220;2023-05-10T10:41:40;4.50;;;2.50;;
35290;SDS011;21411;50.024;19.220;2023-05-10T11:07:54;2.70;;;2.50;;
35290;SDS011;21411;50.024;19.220;2023-05-10T11:10:22;2.80;;;2.20;;
35290;SDS011;21411;50.024;19.220;2023-05-10T11:13:09;2.60;;;2.40;;
35290;SDS011;21411;50.024;19.220;2023-05-10T11:15:37;2.30;;;2.10;;
35290;SDS011;21411;50.024;19.220;2023-05-10T11:20:50;2.90;;;2.20;;
35290;SDS011;21411;50.024;19.220;2023-05-10T11:23:18;2.90;;;2.20;;
35290;SDS011;21411;50.024;19.220;2023-05-10T11:25:45;3.20;;;2.30;;
35290;SDS011;21411;50.024;19.220;2023-05-10T11:28:12;2.60;;;2.30;;
35290;SDS011;21411;50.024;19.220;2023-05-10T11:30:40;4.60;;;2.20;;
35290;SDS011;21411;50.024;19.220;2023-05-10T11:33:09;2.90;;;2.20;;
35290;SDS011;21411;50.024;19.220;2023-05-10T11:35:41;3.10;;;2.00;;
35290;SDS011;21411;50.024;19.220;2023-05-10T11:38:08;2.70;;;2.50;;
35290;SDS011;21411;50.024;19.220;2023-05-10T11:40:35;3.10;;;2.00;;
35290;SDS011;21411;50.024;19.220;2023-05-10T11:43:03;3.00;;;2.20;;
35290;SDS011;21411;50.024;19.220;2023-05-10T11:45:33;2.40;;;2.20;;
35290;SDS011;21411;50.024;19.220;2023-05-10T11:48:01;2.10;;;1.90;;
35290;SDS011;21411;50.024;19.220;2023-05-10T11:50:29;2.10;;;1.90;;
35290;SDS011;21411;50.024;19.220;2023-05-10T11:52:56;2.60;;;2.00;;
35290;SDS011;21411;50.024;19.220;2023-05-10T11:55:23;2.50;;;2.10;;
35290;SDS011;21411;50.024;19.220;2023-05-10T11:57:53;3.40;;;2.20;;
35290;SDS011;21411;50.024;19.220;2023-05-10T12:00:20;3.30;;;2.50;;
35290;SDS011;21411;50.024;19.220;2023-05-10T12:02:47;2.40;;;2.20;;
35290;SDS011;21411;50.024;19.220;2023-05-10T12:05:14;2.30;;;2.10;;
35290;SDS011;21411;50.024;19.220;2023-05-10T12:07:41;2.00;;;1.90;;
35290;SDS011;21411;50.024;19.220;2023-05-10T12:10:11;4.70;;;2.10;;
35290;SDS011;21411;50.024;19.220;2023-05-10T12:12:44;2.20;;;2.00;;
35290;SDS011;21411;50.024;19.220;2023-05-10T12:17:49;2.10;;;1.90;;
35290;SDS011;21411;50.024;19.220;2023-05-10T12:22:52;2.20;;;2.00;;
35290;SDS011;21411;50.024;19.220;2023-05-10T12:25:20;2.50;;;1.80;;
35290;SDS011;21411;50.024;19.220;2023-05-10T12:27:53;2.10;;;1.90;;
35290;SDS011;21411;50.024;19.220;2023-05-10T12:30:22;2.80;;;2.10;;
35290;SDS011;21411;50.024;19.220;2023-05-10T12:32:50;2.90;;;2.10;;
35290;SDS011;21411;50.024;19.220;2023-05-10T12:35:17;2.60;;;1.70;;
35290;SDS011;21411;50.024;19.220;2023-05-10T12:37:52;2.80;;;2.30;;
35290;SDS011;21411;50.024;19.220;2023-05-10T12:40:19;3.00;;;2.00;;
35290;SDS011;21411;50.024;19.220;2023-05-10T12:42:46;2.80;;;1.90;;
35290;SDS011;21411;50.024;19.220;2023-05-10T12:45:12;2.30;;;1.80;;
35290;SDS011;21411;50.024;19.220;2023-05-10T12:47:39;6.50;;;2.30;;
35290;SDS011;21411;50.024;19.220;2023-05-10T12:50:06;2.20;;;1.80;;
35290;SDS011;21411;50.024;19.220;2023-05-10T12:52:34;5.00;;;2.90;;
35290;SDS011;21411;50.024;19.220;2023-05-10T12:55:01;9.00;;;3.60;;
35290;SDS011;21411;50.024;19.220;2023-05-10T12:57:29;1.80;;;1.70;;
35290;SDS011;21411;50.024;19.220;2023-05-10T12:59:55;6.40;;;2.20;;
35290;SDS011;21411;50.024;19.220;2023-05-10T13:02:22;2.30;;;2.10;;
35290;SDS011;21411;50.024;19.220;2023-05-10T13:04:49;4.00;;;1.80;;
35290;SDS011;21411;50.024;19.220;2023-05-10T13:07:16;1.90;;;1.80;;
35290;SDS011;21411;50.024;19.220;2023-05-10T13:09:42;9.90;;;2.90;;
35290;SDS011;21411;50.024;19.220;2023-05-10T13:12:09;3.20;;;2.40;;
35290;SDS011;21411;50.024;19.220;2023-05-10T13:14:36;3.10;;;2.30;;
35290;SDS011;21411;50.024;19.220;2023-05-10T13:17:03;2.40;;;2.20;;
35290;SDS011;21411;50.024;19.220;2023-05-10T13:19:30;6.00;;;2.30;;
35290;SDS011;21411;50.024;19.220;2023-05-10T13:21:56;2.30;;;2.10;;
35290;SDS011;21411;50.024;19.220;2023-05-10T13:24:23;3.00;;;2.00;;
35290;SDS011;21411;50.024;19.220;2023-05-10T13:26:49;6.60;;;2.50;;
35290;SDS011;21411;50.024;19.220;2023-05-10T13:29:16;3.30;;;2.00;;
35290;SDS011;21411;50.024;19.220;2023-05-10T13:31:58;2.90;;;2.10;;
35290;SDS011;21411;50.024;19.220;2023-05-10T13:34:25;2.40;;;2.20;;
35290;SDS011;21411;50.024;19.220;2023-05-10T13:36:51;3.00;;;2.10;;
35290;SDS011;21411;50.024;19.220;2023-05-10T13:39:20;2.40;;;1.90;;
35290;SDS011;21411;50.024;19.220;2023-05-10T13:41:46;2.60;;;1.70;;
35290;SDS011;21411;50.024;19.220;2023-05-10T13:44:13;2.50;;;2.30;;
35290;SDS011;21411;50.024;19.220;2023-05-10T13:46:41;3.00;;;1.90;;
35290;SDS011;21411;50.024;19.220;2023-05-10T13:49:08;4.50;;;2.20;;
35290;SDS011;21411;50.024;19.220;2023-05-10T13:51:35;1.90;;;1.80;;
35290;SDS011;21411;50.024;19.220;2023-05-10T13:54:02;2.40;;;2.00;;
35290;SDS011;21411;50.024;19.220;2023-05-10T13:56:29;4.70;;;2.10;;
35290;SDS011;21411;50.024;19.220;2023-05-10T13:58:56;2.90;;;2.20;;
35290;SDS011;21411;50.024;19.220;2023-05-10T14:01:24;2.30;;;2.00;;
35290;SDS011;21411;50.024;19.220;2023-05-10T14:03:51;2.20;;;2.00;;
35290;SDS011;21411;50.024;19.220;2023-05-10T14:06:17;3.90;;;2.60;;
35290;SDS011;21411;50.024;19.220;2023-05-10T14:08:44;5.50;;;2.30;;
35290;SDS011;21411;50.024;19.220;2023-05-10T14:11:10;2.60;;;2.40;;
35290;SDS011;21411;50.024;19.220;2023-05-10T14:13:37;3.00;;;1.80;;
35290;SDS011;21411;50.024;19.220;2023-05-10T14:16:04;3.40;;;1.90;;
35290;SDS011;21411;50.024;19.220;2023-05-10T14:18:31;2.30;;;2.10;;
35290;SDS011;21411;50.024;19.220;2023-05-10T14:20:57;2.00;;;1.80;;
35290;SDS011;21411;50.024;19.220;2023-05-10T14:23:24;2.20;;;2.00;;
35290;SDS011;21411;50.024;19.220;2023-05-10T14:25:52;2.40;;;2.00;;
35290;SDS011;21411;50.024;19.220;2023-05-10T14:28:19;2.60;;;2.30;;
35290;SDS011;21411;50.024;19.220;2023-05-10T14:30:46;2.80;;;2.00;;
35290;SDS011;21411;50.024;19.220;2023-05-10T14:33:13;4.20;;;2.10;;
35290;SDS011;21411;50.024;19.220;2023-05-10T14:35:40;3.50;;;2.50;;
35290;SDS011;21411;50.024;19.220;2023-05-10T14:38:06;5.10;;;2.00;;
35290;SDS011;21411;50.024;19.220;2023-05-10T14:40:33;4.20;;;2.50;;
35290;SDS011;21411;50.024;19.220;2023-05-10T14:42:59;3.80;;;3.10;;
35290;SDS011;21411;50.024;19.220;2023-05-10T14:45:26;2.60;;;1.90;;
35290;SDS011;21411;50.024;19.220;2023-05-10T14:47:53;2.30;;;2.10;;
35290;SDS011;21411;50.024;19.220;2023-05-10T14:50:19;3.40;;;2.50;;
35290;SDS011;21411;50.024;19.220;2023-05-10T14:52:46;2.70;;;2.20;;
35290;SDS011;21411;50.024;19.220;2023-05-10T14:55:12;2.30;;;2.10;;
35290;SDS011;21411;50.024;19.220;2023-05-10T14:57:38;2.40;;;2.20;;
35290;SDS011;21411;50.024;19.220;2023-05-10T15:00:05;4.00;;;2.40;;
35290;SDS011;21411;50.024;19.220;2023-05-10T15:02:35;2.30;;;2.10;;
35290;SDS011;21411;50.024;19.220;2023-05-10T15:05:01;2.70;;;2.20;;
35290;SDS011;21411;50.024;19.220;2023-05-10T15:07:28;2.70;;;2.20;;
35290;SDS011;21411;50.024;19.220;2023-05-10T15:09:54;3.00;;;2.20;;
35290;SDS011;21411;50.024;19.220;2023-05-10T15:12:21;5.10;;;2.50;;
35290;SDS011;21411;50.024;19.220;2023-05-10T15:14:48;5.20;;;2.60;;
35290;SDS011;21411;50.024;19.220;2023-05-10T15:17:16;2.30;;;2.00;;
35290;SDS011;21411;50.024;19.220;2023-05-10T15:19:43;3.20;;;2.30;;
35290;SDS011;21411;50.024;19.220;2023-05-10T15:22:10;3.00;;;2.00;;
35290;SDS011;21411;50.024;19.220;2023-05-10T15:24:37;4.20;;;2.60;;